Time;durP1;ratioP1;P1;durP2;ratioP2;P2;SDS_P1;SDS_P2;PMS_P1;PMS_P2;Temp;Humidity;BMP_temperature;BMP_pressure;BME280_temperature;BME280_humidity;BME280_pressure;Samples;Min_cycle;Max_cycle;Signal;HPM_P1;HPM_P2
2022/07/16 05:38:16;;;;;;;;;;;;;;;;;;5570502;19;957829151;31
2022/07/16 05:40:42;;;;;;;6.13;3.43;;;;;;;;;;7407458;19;20189;-77
2022/07/16 05:43:07;;;;;;;6.27;3.67;;;;;;;;;;7391550;19;20151;-77
2022/07/16 05:45:32;;;;;;;4.23;3.50;;;;;;;;;;7390574;19;20125;-77
2022/07/16 05:47:58;;;;;;;4.63;3.50;;;;;;;;;;7385178;19;20124;-77
2022/07/16 05:50:23;;;;;;;6.00;3.67;;;;;;;;;;7388195;19;23324;-77
2022/07/16 05:52:52;;;;;;;6.30;3.37;;;;;;;;;;7386209;19;20144;-77
2022/07/16 05:55:17;;;;;;;5.97;3.40;;;;;;;;;;7385724;19;20117;-78
2022/07/16 05:57:42;;;;;;;4.77;3.17;;;;;;;;;;7388851;19;20257;-77
2022/07/16 06:00:10;;;;;;;9.40;3.40;;;;;;;;;;7385508;19;20477;-77
2022/07/16 06:02:36;;;;;;;6.10;3.73;;;;;;;;;;7382099;19;20199;-77
2022/07/16 06:05:01;;;;;;;4.60;3.50;;;;;;;;;;7383696;19;20129;-78
2022/07/16 06:07:26;;;;;;;7.50;4.00;;;;;;;;;;7384397;19;20133;-77
2022/07/16 06:09:52;;;;;;;9.67;3.83;;;;;;;;;;7380610;19;20148;-77
2022/07/16 06:12:17;;;;;;;5.80;3.40;;;;;;;;;;7383627;19;20188;-79
2022/07/16 06:14:42;;;;;;;4.77;3.53;;;;;;;;;;7380786;19;20141;-77
2022/07/16 06:17:08;;;;;;;4.33;3.50;;;;;;;;;;7383443;19;20591;-77
2022/07/16 06:19:33;;;;;;;5.13;3.10;;;;;;;;;;7380343;19;20137;-77
2022/07/16 06:21:58;;;;;;;7.53;3.57;;;;;;;;;;7371235;19;20585;-77
2022/07/16 06:24:24;;;;;;;7.07;3.73;;;;;;;;;;7376264;19;21042;-77
2022/07/16 06:26:49;;;;;;;5.23;3.30;;;;;;;;;;7384396;19;20163;-77
2022/07/16 06:29:15;;;;;;;6.73;3.60;;;;;;;;;;7389511;19;20151;-78
2022/07/16 06:31:41;;;;;;;5.20;3.30;;;;;;;;;;7392330;19;20690;-79
2022/07/16 06:34:06;;;;;;;4.20;3.33;;;;;;;;;;7397703;19;20137;-78
2022/07/16 06:36:31;;;;;;;6.57;3.33;;;;;;;;;;7380979;19;20486;-78
2022/07/16 06:38:57;;;;;;;4.10;3.23;;;;;;;;;;7383096;19;20141;-77
2022/07/16 06:41:22;;;;;;;5.33;3.20;;;;;;;;;;7376134;19;20189;-79
2022/07/16 06:43:47;;;;;;;4.90;3.20;;;;;;;;;;7386195;19;20233;-77
2022/07/16 06:46:13;;;;;;;3.90;3.17;;;;;;;;;;7382159;19;20486;-80
2022/07/16 06:48:38;;;;;;;4.50;3.40;;;;;;;;;;7382531;19;20156;-78
2022/07/16 06:51:03;;;;;;;6.73;3.50;;;;;;;;;;7380507;19;21264;-78
2022/07/16 06:53:29;;;;;;;5.47;3.00;;;;;;;;;;7381689;19;20157;-78
2022/07/16 06:55:54;;;;;;;6.83;3.53;;;;;;;;;;7382375;19;20153;-77
2022/07/16 06:58:19;;;;;;;4.77;3.37;;;;;;;;;;7387548;19;20118;-78
2022/07/16 07:00:45;;;;;;;4.23;3.40;;;;;;;;;;7388752;19;20172;-78
2022/07/16 07:03:11;;;;;;;6.20;3.90;;;;;;;;;;7387279;19;20137;-77
2022/07/16 07:05:37;;;;;;;3.57;3.00;;;;;;;;;;7387350;19;20232;-78
2022/07/16 07:08:03;;;;;;;4.20;3.03;;;;;;;;;;7385708;19;20153;-77
2022/07/16 07:10:28;;;;;;;7.57;3.63;;;;;;;;;;7388076;19;20686;-77
2022/07/16 07:12:54;;;;;;;6.13;3.50;;;;;;;;;;7382907;19;20144;-77
2022/07/16 07:15:19;;;;;;;6.17;3.10;;;;;;;;;;7389345;19;20157;-77
2022/07/16 07:17:45;;;;;;;4.00;3.10;;;;;;;;;;7389288;19;20136;-77
2022/07/16 07:20:11;;;;;;;5.88;3.00;;;;;;;;;;7383958;19;20478;-79
2022/07/16 07:22:36;;;;;;;7.50;3.20;;;;;;;;;;7380614;19;20185;-78
2022/07/16 07:25:01;;;;;;;5.50;3.03;;;;;;;;;;7390366;19;20615;-77
2022/07/16 07:27:27;;;;;;;3.67;2.83;;;;;;;;;;7390449;19;20167;-77
2022/07/16 07:29:52;;;;;;;7.25;3.42;;;;;;;;;;7384126;19;20196;-77
2022/07/16 07:32:17;;;;;;;3.95;3.05;;;;;;;;;;7379382;19;20261;-76
2022/07/16 07:34:43;;;;;;;5.88;3.03;;;;;;;;;;7386934;19;20470;-77
2022/07/16 07:37:08;;;;;;;5.13;3.10;;;;;;;;;;7389414;19;20646;-78
2022/07/16 07:39:34;;;;;;;5.03;2.92;;;;;;;;;;7386645;19;20167;-80
2022/07/16 07:42:00;;;;;;;3.20;2.90;;;;;;;;;;7390164;19;20168;-79
2022/07/16 07:44:25;;;;;;;3.17;2.70;;;;;;;;;;7383895;19;20148;-79
2022/07/16 07:46:51;;;;;;;4.57;3.08;;;;;;;;;;7376646;19;20149;-78
2022/07/16 07:49:16;;;;;;;3.97;2.85;;;;;;;;;;7387234;19;20133;-79
2022/07/16 07:51:41;;;;;;;5.65;2.80;;;;;;;;;;7383460;19;20169;-77
2022/07/16 07:54:07;;;;;;;6.10;3.15;;;;;;;;;;7391037;19;20156;-76
2022/07/16 07:56:32;;;;;;;3.40;3.10;;;;;;;;;;7389177;19;20144;-77
2022/07/16 07:58:58;;;;;;;3.50;2.75;;;;;;;;;;7387657;19;20125;-79
2022/07/16 08:01:23;;;;;;;4.30;3.10;;;;;;;;;;7386944;19;20148;-79
2022/07/16 08:03:48;;;;;;;3.88;2.85;;;;;;;;;;7389308;19;20149;-77
2022/07/16 08:06:14;;;;;;;5.72;2.55;;;;;;;;;;7391590;19;20883;-77
2022/07/16 08:08:39;;;;;;;5.43;2.97;;;;;;;;;;7397720;19;20486;-77
2022/07/16 08:11:04;;;;;;;5.80;3.20;;;;;;;;;;7397708;19;20573;-78
2022/07/16 08:13:30;;;;;;;5.63;2.85;;;;;;;;;;7391651;19;20620;-80
2022/07/16 08:15:55;;;;;;;7.38;3.15;;;;;;;;;;7387295;19;20618;-78
2022/07/16 08:18:20;;;;;;;4.10;3.67;;;;;;;;;;7387996;19;20534;-78
2022/07/16 08:20:46;;;;;;;4.88;2.63;;;;;;;;;;7386479;19;20145;-79
2022/07/16 08:23:12;;;;;;;3.13;2.63;;;;;;;;;;7377508;19;20503;-77
2022/07/16 08:25:46;;;;;;;4.82;2.60;;;;;;;;;;7384630;19;20121;-77
2022/07/16 08:28:15;;;;;;;3.47;2.63;;;;;;;;;;7380532;19;20124;-79
2022/07/16 08:30:41;;;;;;;5.88;3.00;;;;;;;;;;7407184;19;20148;-79
2022/07/16 08:33:07;;;;;;;4.00;2.80;;;;;;;;;;7422500;19;20132;-78
2022/07/16 08:35:32;;;;;;;6.03;2.72;;;;;;;;;;7413936;19;20129;-78
2022/07/16 08:37:58;;;;;;;3.17;2.88;;;;;;;;;;7417132;19;20133;-81
2022/07/16 08:40:24;;;;;;;4.35;2.97;;;;;;;;;;7386115;19;20140;-78
2022/07/16 08:42:50;;;;;;;4.50;2.70;;;;;;;;;;7378264;19;20125;-80
2022/07/16 08:45:22;;;;;;;4.30;2.83;;;;;;;;;;7366036;19;20129;-78
2022/07/16 08:47:52;;;;;;;5.28;2.83;;;;;;;;;;7375941;19;20155;-78
2022/07/16 08:50:17;;;;;;;3.05;2.75;;;;;;;;;;7368386;19;20143;-78
2022/07/16 08:52:46;;;;;;;3.78;2.55;;;;;;;;;;7361488;19;20148;-78
2022/07/16 08:55:12;;;;;;;5.63;2.75;;;;;;;;;;7365527;19;20159;-78
2022/07/16 08:57:39;;;;;;;3.30;2.45;;;;;;;;;;7356968;19;20141;-78
2022/07/16 09:00:07;;;;;;;5.22;4.15;;;;;;;;;;7372821;19;20147;-78
2022/07/16 09:02:34;;;;;;;3.45;3.10;;;;;;;;;;7375058;19;20670;-79
2022/07/16 09:04:59;;;;;;;13.27;11.90;;;;;;;;;;7372557;19;20198;-79
2022/07/16 09:07:25;;;;;;;9.02;4.15;;;;;;;;;;7376730;19;20177;-78
2022/07/16 09:09:50;;;;;;;3.97;2.95;;;;;;;;;;7380270;19;20241;-81
2022/07/16 09:12:52;;;;;;;5.93;3.20;;;;;;;;;;7377707;19;20184;-79
2022/07/16 09:15:26;;;;;;;5.93;2.72;;;;;;;;;;7382409;19;20132;-79
2022/07/16 09:18:12;;;;;;;5.70;2.80;;;;;;;;;;7381995;19;20573;-79
2022/07/16 09:20:39;;;;;;;4.78;3.00;;;;;;;;;;7383464;19;20215;-79
2022/07/16 09:23:19;;;;;;;6.38;2.72;;;;;;;;;;7377588;19;20516;-79
2022/07/16 09:25:49;;;;;;;5.38;3.13;;;;;;;;;;7381171;19;20649;-79
2022/07/16 09:28:15;;;;;;;3.67;3.20;;;;;;;;;;7376121;19;20120;-79
2022/07/16 09:30:40;;;;;;;3.55;3.00;;;;;;;;;;7376267;19;20180;-78
2022/07/16 09:33:20;;;;;;;8.10;2.80;;;;;;;;;;7370392;19;20212;-79
2022/07/16 09:35:46;;;;;;;7.60;3.00;;;;;;;;;;7379032;19;20213;-79
2022/07/16 09:38:12;;;;;;;4.95;3.10;;;;;;;;;;7372895;19;20141;-79
2022/07/16 09:40:46;;;;;;;4.88;3.15;;;;;;;;;;7370814;19;20783;-80
2022/07/16 09:43:12;;;;;;;3.92;2.80;;;;;;;;;;7372245;19;20164;-79
2022/07/16 09:45:41;;;;;;;3.97;2.67;;;;;;;;;;7377730;19;20152;-80
2022/07/16 09:48:20;;;;;;;6.22;2.75;;;;;;;;;;7380051;19;20147;-80
2022/07/16 09:50:45;;;;;;;4.85;3.00;;;;;;;;;;7384812;19;20148;-79
2022/07/16 09:53:21;;;;;;;3.47;3.00;;;;;;;;;;7381390;19;20525;-78
2022/07/16 09:56:05;;;;;;;4.85;2.70;;;;;;;;;;7374529;19;20186;-78
2022/07/16 09:58:31;;;;;;;4.88;2.78;;;;;;;;;;7371696;19;20124;-78
2022/07/16 10:00:58;;;;;;;5.88;3.25;;;;;;;;;;7375287;19;20206;-78
2022/07/16 10:03:25;;;;;;;4.20;3.42;;;;;;;;;;7375420;19;20161;-78
2022/07/16 10:05:50;;;;;;;5.18;3.30;;;;;;;;;;7367012;19;20129;-79
2022/07/16 10:08:16;;;;;;;6.20;3.15;;;;;;;;;;7363942;19;20136;-79
2022/07/16 10:10:42;;;;;;;4.30;3.38;;;;;;;;;;7363580;19;20212;-78
2022/07/16 10:13:08;;;;;;;5.03;3.08;;;;;;;;;;7363262;19;20629;-78
2022/07/16 10:15:34;;;;;;;4.93;3.30;;;;;;;;;;7366385;19;20160;-79
2022/07/16 10:18:00;;;;;;;6.45;3.90;;;;;;;;;;7370194;19;20591;-81
2022/07/16 10:20:25;;;;;;;4.82;3.05;;;;;;;;;;7368313;19;20140;-79
2022/07/16 10:22:51;;;;;;;5.40;3.30;;;;;;;;;;7365152;19;20128;-79
2022/07/16 10:25:20;;;;;;;3.00;2.70;;;;;;;;;;7370562;19;20155;-80
2022/07/16 10:27:46;;;;;;;5.35;3.20;;;;;;;;;;7371557;19;21316;-78
2022/07/16 10:30:23;;;;;;;5.13;2.78;;;;;;;;;;7364215;19;20129;-78
2022/07/16 10:33:05;;;;;;;4.95;3.08;;;;;;;;;;7384205;19;20125;-79
2022/07/16 10:35:45;;;;;;;6.35;2.90;;;;;;;;;;7374261;19;20204;-78
2022/07/16 10:38:25;;;;;;;5.63;2.88;;;;;;;;;;7379436;19;20475;-78
2022/07/16 10:41:13;;;;;;;3.83;2.88;;;;;;;;;;7374299;19;20148;-79
2022/07/16 10:43:39;;;;;;;5.47;3.70;;;;;;;;;;7378821;19;20164;-80
2022/07/16 10:46:07;;;;;;;4.85;3.55;;;;;;;;;;7376416;19;20524;-79
2022/07/16 10:48:38;;;;;;;4.28;2.95;;;;;;;;;;7372109;19;20280;-79
2022/07/16 10:51:20;;;;;;;4.28;2.78;;;;;;;;;;7377645;19;20171;-79
2022/07/16 10:53:58;;;;;;;4.63;3.35;;;;;;;;;;7383898;19;20200;-79
2022/07/16 10:56:37;;;;;;;3.38;2.88;;;;;;;;;;7379077;19;20149;-79
2022/07/16 10:59:03;;;;;;;5.55;2.97;;;;;;;;;;7384876;19;20155;-82
2022/07/16 11:01:29;;;;;;;3.00;2.70;;;;;;;;;;7383571;19;20176;-79
2022/07/16 11:03:54;;;;;;;4.05;2.88;;;;;;;;;;7372089;19;20124;-78
2022/07/16 11:06:23;;;;;;;3.13;2.92;;;;;;;;;;7375832;19;20200;-79
2022/07/16 11:08:56;;;;;;;4.32;2.78;;;;;;;;;;7373604;19;20152;-78
2022/07/16 11:11:22;;;;;;;4.20;2.80;;;;;;;;;;7380919;19;20153;-78
2022/07/16 11:13:48;;;;;;;3.70;2.88;;;;;;;;;;7391127;19;20507;-79
2022/07/16 11:16:14;;;;;;;3.85;3.08;;;;;;;;;;7380621;19;20145;-79
2022/07/16 11:18:40;;;;;;;3.30;3.00;;;;;;;;;;7376418;19;20205;-78
2022/07/16 11:21:06;;;;;;;3.08;2.88;;;;;;;;;;7370956;19;20156;-79
2022/07/16 11:23:47;;;;;;;4.70;2.95;;;;;;;;;;7380491;19;20125;-78
2022/07/16 11:26:13;;;;;;;3.65;2.78;;;;;;;;;;7386259;19;20159;-80
2022/07/16 11:28:50;;;;;;;4.32;3.22;;;;;;;;;;7380515;19;20117;-79
2022/07/16 11:31:28;;;;;;;3.17;2.97;;;;;;;;;;7379781;19;20179;-80
2022/07/16 11:33:59;;;;;;;4.40;2.60;;;;;;;;;;7385375;19;20587;-79
2022/07/16 11:36:33;;;;;;;3.50;3.20;;;;;;;;;;7376257;19;20159;-79
2022/07/16 11:39:02;;;;;;;5.80;3.30;;;;;;;;;;7381277;19;20156;-79
2022/07/16 11:41:28;;;;;;;4.07;3.20;;;;;;;;;;7380727;19;20172;-80
2022/07/16 11:43:54;;;;;;;4.35;3.15;;;;;;;;;;7377221;19;20159;-80
2022/07/16 11:46:35;;;;;;;3.50;3.20;;;;;;;;;;7365569;19;20153;-80
2022/07/16 11:49:03;;;;;;;3.70;2.72;;;;;;;;;;7379149;19;20630;-80
2022/07/16 11:51:29;;;;;;;4.57;3.20;;;;;;;;;;7368754;19;20204;-80
2022/07/16 11:53:55;;;;;;;5.72;3.38;;;;;;;;;;7348362;19;20154;-79
2022/07/16 11:56:36;;;;;;;3.13;2.92;;;;;;;;;;7348600;19;21578;-79
2022/07/16 11:59:02;;;;;;;4.20;3.10;;;;;;;;;;7378288;19;20148;-79
2022/07/16 12:01:32;;;;;;;3.58;3.28;;;;;;;;;;7365119;19;20164;-80
2022/07/16 12:03:58;;;;;;;3.65;3.25;;;;;;;;;;7374842;19;20157;-79
2022/07/16 12:06:24;;;;;;;3.35;3.05;;;;;;;;;;7414809;19;20202;-80
2022/07/16 12:08:52;;;;;;;3.97;3.15;;;;;;;;;;7387596;19;20125;-80
2022/07/16 12:11:17;;;;;;;4.07;3.35;;;;;;;;;;7349305;19;21175;-80
2022/07/16 12:13:53;;;;;;;4.65;3.35;;;;;;;;;;7374914;19;20233;-80
2022/07/16 12:16:19;;;;;;;3.65;3.10;;;;;;;;;;7378278;19;20156;-81
2022/07/16 12:19:02;;;;;;;4.13;3.35;;;;;;;;;;7327738;19;20698;-80
2022/07/16 12:21:30;;;;;;;4.68;3.08;;;;;;;;;;7365255;19;20157;-80
2022/07/16 12:23:55;;;;;;;3.35;3.05;;;;;;;;;;7338035;19;20147;-79
2022/07/16 12:26:29;;;;;;;5.65;3.33;;;;;;;;;;7325639;19;22600;-80
2022/07/16 12:28:55;;;;;;;4.85;3.15;;;;;;;;;;7339669;19;20733;-79
2022/07/16 12:31:20;;;;;;;3.97;3.08;;;;;;;;;;7346966;19;20720;-79
2022/07/16 12:33:53;;;;;;;4.05;3.20;;;;;;;;;;7370218;19;20157;-80
2022/07/16 12:36:18;;;;;;;3.60;3.20;;;;;;;;;;7376622;19;20121;-80
2022/07/16 12:39:02;;;;;;;4.07;3.50;;;;;;;;;;7368330;19;20153;-80
2022/07/16 12:41:34;;;;;;;3.40;3.20;;;;;;;;;;7366851;19;20177;-80
2022/07/16 12:44:07;;;;;;;3.72;3.22;;;;;;;;;;7368307;19;20128;-81
2022/07/16 12:46:37;;;;;;;3.80;3.40;;;;;;;;;;7367473;19;20160;-80
2022/07/16 12:49:05;;;;;;;3.30;3.08;;;;;;;;;;7347542;19;20140;-80
2022/07/16 12:51:34;;;;;;;3.53;3.22;;;;;;;;;;7363892;19;20152;-80
2022/07/16 12:54:03;;;;;;;4.65;3.30;;;;;;;;;;7362828;19;20136;-80
2022/07/16 12:59:14;;;;;;;4.57;3.30;;;;;;;;;;7381195;19;20132;-80
2022/07/16 13:01:40;;;;;;;4.90;3.40;;;;;;;;;;7373598;19;20520;-80
2022/07/16 13:04:06;;;;;;;3.17;2.97;;;;;;;;;;7380522;19;20125;-79
2022/07/16 13:06:31;;;;;;;3.25;2.95;;;;;;;;;;7377489;19;21225;-79
2022/07/16 13:08:57;;;;;;;4.10;3.40;;;;;;;;;;7377044;19;20117;-81
2022/07/16 13:11:23;;;;;;;4.55;3.75;;;;;;;;;;7373679;19;20639;-81
2022/07/16 13:13:49;;;;;;;5.55;3.85;;;;;;;;;;7374213;19;20128;-80
2022/07/16 13:16:17;;;;;;;4.75;3.03;;;;;;;;;;7383531;19;20157;-79
2022/07/16 13:18:42;;;;;;;4.50;3.20;;;;;;;;;;7374913;19;20136;-80
2022/07/16 13:21:08;;;;;;;4.35;3.33;;;;;;;;;;7371514;19;20477;-80
2022/07/16 13:23:34;;;;;;;4.20;3.30;;;;;;;;;;7382184;19;20572;-80
2022/07/16 13:26:00;;;;;;;3.40;3.10;;;;;;;;;;7381919;19;20590;-80
2022/07/16 13:28:26;;;;;;;4.90;2.85;;;;;;;;;;7379620;19;20578;-80
2022/07/16 13:30:51;;;;;;;3.85;2.85;;;;;;;;;;7373620;19;20168;-80
2022/07/16 13:33:17;;;;;;;6.70;3.03;;;;;;;;;;7376574;19;20158;-80
2022/07/16 13:35:44;;;;;;;4.18;3.03;;;;;;;;;;7383534;19;20152;-80
2022/07/16 13:38:09;;;;;;;5.90;3.13;;;;;;;;;;7384509;19;20594;-79
2022/07/16 13:40:35;;;;;;;3.47;2.97;;;;;;;;;;7375181;19;20188;-79
2022/07/16 13:43:00;;;;;;;4.45;3.38;;;;;;;;;;7369839;19;20124;-80
2022/07/16 13:45:26;;;;;;;3.05;2.85;;;;;;;;;;7378885;19;20139;-80
2022/07/16 13:47:51;;;;;;;3.45;3.00;;;;;;;;;;7368373;19;20562;-80
2022/07/16 13:50:17;;;;;;;4.68;3.65;;;;;;;;;;7374524;19;20607;-80
2022/07/16 13:52:43;;;;;;;3.70;3.30;;;;;;;;;;7376401;19;20140;-80
2022/07/16 13:55:09;;;;;;;3.75;3.22;;;;;;;;;;7372822;19;20574;-80
2022/07/16 14:00:21;;;;;;;3.55;3.00;;;;;;;;;;7395527;19;20148;-80
2022/07/16 14:02:46;;;;;;;4.50;3.10;;;;;;;;;;7396990;19;20131;-80
2022/07/16 14:05:12;;;;;;;3.42;3.13;;;;;;;;;;7379632;19;20144;-79
2022/07/16 14:07:37;;;;;;;3.20;2.90;;;;;;;;;;7383492;19;20155;-80
2022/07/16 14:10:04;;;;;;;3.20;3.00;;;;;;;;;;7375648;19;20132;-80
2022/07/16 14:12:30;;;;;;;4.15;3.25;;;;;;;;;;7382490;19;20197;-80
2022/07/16 14:14:55;;;;;;;3.08;2.88;;;;;;;;;;7395998;19;20124;-80
2022/07/16 14:17:21;;;;;;;6.47;3.00;;;;;;;;;;7407890;19;20141;-80
2022/07/16 14:19:46;;;;;;;3.78;3.20;;;;;;;;;;7407530;19;20144;-79
2022/07/16 14:22:12;;;;;;;4.28;3.00;;;;;;;;;;7409588;19;20160;-80
2022/07/16 14:24:38;;;;;;;3.40;3.10;;;;;;;;;;7419898;19;20128;-80
2022/07/16 14:27:03;;;;;;;3.95;3.13;;;;;;;;;;7409646;19;20170;-80
2022/07/16 14:29:29;;;;;;;4.38;3.13;;;;;;;;;;7415462;19;20117;-81
2022/07/16 14:31:54;;;;;;;3.78;3.10;;;;;;;;;;7413218;19;20173;-80
2022/07/16 14:34:20;;;;;;;3.10;2.90;;;;;;;;;;7402853;19;20163;-80
2022/07/16 14:36:45;;;;;;;4.00;3.45;;;;;;;;;;7409196;19;20146;-80
2022/07/16 14:39:38;;;;;;;3.75;3.30;;;;;;;;;;7374588;19;20548;-80
2022/07/16 14:42:05;;;;;;;5.55;3.72;;;;;;;;;;7387692;19;20572;-80
2022/07/16 14:45:00;;;;;;;4.70;3.70;;;;;;;;;;7388853;19;20166;-80
2022/07/16 14:47:28;;;;;;;3.60;3.30;;;;;;;;;;7390609;19;20152;-80
2022/07/16 14:49:53;;;;;;;3.78;3.47;;;;;;;;;;7385989;19;20129;-80
2022/07/16 14:52:19;;;;;;;3.78;3.38;;;;;;;;;;7376921;19;20151;-80
2022/07/16 14:54:44;;;;;;;4.15;3.67;;;;;;;;;;7386917;19;20180;-80
2022/07/16 14:57:10;;;;;;;3.80;3.42;;;;;;;;;;7380934;19;20156;-80
2022/07/16 14:59:35;;;;;;;5.30;2.90;;;;;;;;;;7377059;19;20474;-80
2022/07/16 15:02:00;;;;;;;4.15;3.38;;;;;;;;;;7372758;19;20172;-81
2022/07/16 15:04:26;;;;;;;3.95;3.58;;;;;;;;;;7382776;19;20157;-80
2022/07/16 15:06:51;;;;;;;3.92;3.47;;;;;;;;;;7388896;19;20177;-80
2022/07/16 15:09:16;;;;;;;3.67;3.38;;;;;;;;;;7390982;19;20628;-80
2022/07/16 15:11:42;;;;;;;4.40;3.75;;;;;;;;;;7389727;19;20168;-81
2022/07/16 15:14:07;;;;;;;4.40;3.65;;;;;;;;;;7401952;19;20172;-81
2022/07/16 15:16:32;;;;;;;3.85;3.30;;;;;;;;;;7394887;19;20152;-80
2022/07/16 15:18:59;;;;;;;3.60;3.30;;;;;;;;;;7409219;19;20132;-80
2022/07/16 15:21:25;;;;;;;4.00;3.53;;;;;;;;;;7421591;19;20168;-80
2022/07/16 15:23:50;;;;;;;5.03;3.67;;;;;;;;;;7411594;19;20132;-80
2022/07/16 15:26:15;;;;;;;3.60;3.30;;;;;;;;;;7423852;19;20132;-79
2022/07/16 15:28:41;;;;;;;3.08;2.88;;;;;;;;;;7413378;19;20144;-80
2022/07/16 15:31:06;;;;;;;3.53;3.22;;;;;;;;;;7406271;19;20208;-80
2022/07/16 15:33:37;;;;;;;3.22;2.92;;;;;;;;;;7382950;19;20709;-81
2022/07/16 15:36:09;;;;;;;3.42;3.13;;;;;;;;;;7384811;19;20152;-81
2022/07/16 15:38:35;;;;;;;4.13;3.33;;;;;;;;;;7390109;19;20144;-81
2022/07/16 15:41:00;;;;;;;3.60;3.30;;;;;;;;;;7408800;19;20199;-80
2022/07/16 15:43:26;;;;;;;4.72;3.58;;;;;;;;;;7409928;19;20144;-81
2022/07/16 15:45:51;;;;;;;3.63;3.05;;;;;;;;;;7409255;19;20136;-80
2022/07/16 15:48:16;;;;;;;3.78;3.20;;;;;;;;;;7391061;19;20152;-80
2022/07/16 15:50:42;;;;;;;5.35;3.50;;;;;;;;;;7389775;19;20172;-80
2022/07/16 15:53:07;;;;;;;4.55;3.28;;;;;;;;;;7387662;19;20129;-81
2022/07/16 15:55:32;;;;;;;3.45;3.17;;;;;;;;;;7390567;19;20680;-80
2022/07/16 15:57:58;;;;;;;3.47;3.28;;;;;;;;;;7382777;19;20154;-80
2022/07/16 16:00:24;;;;;;;3.42;3.10;;;;;;;;;;7377147;19;20168;-80
2022/07/16 16:02:49;;;;;;;4.43;3.42;;;;;;;;;;7378677;19;20145;-80
2022/07/16 16:05:14;;;;;;;3.33;3.03;;;;;;;;;;7387955;19;20137;-80
2022/07/16 16:07:40;;;;;;;3.00;2.72;;;;;;;;;;7391186;19;20157;-80
2022/07/16 16:10:06;;;;;;;3.20;2.90;;;;;;;;;;7390054;19;20176;-80
2022/07/16 16:12:33;;;;;;;3.97;3.42;;;;;;;;;;7388858;19;20526;-80
2022/07/16 16:14:58;;;;;;;4.07;3.20;;;;;;;;;;7394585;19;20131;-80
2022/07/16 16:17:24;;;;;;;3.35;3.10;;;;;;;;;;7382636;19;20627;-80
2022/07/16 16:19:49;;;;;;;5.30;4.20;;;;;;;;;;7381559;19;20468;-79
2022/07/16 16:22:15;;;;;;;4.20;3.05;;;;;;;;;;7378880;19;20172;-80
2022/07/16 16:24:40;;;;;;;3.75;3.00;;;;;;;;;;7393971;19;20137;-80
2022/07/16 16:27:06;;;;;;;5.90;3.10;;;;;;;;;;7396052;19;20161;-80
2022/07/16 16:29:31;;;;;;;5.53;2.85;;;;;;;;;;7382699;19;20681;-80
2022/07/16 16:31:57;;;;;;;4.57;3.22;;;;;;;;;;7391405;19;20161;-80
2022/07/16 16:34:22;;;;;;;4.88;3.92;;;;;;;;;;7418798;19;20125;-79
2022/07/16 16:36:48;;;;;;;4.85;3.17;;;;;;;;;;7405637;19;20149;-80
2022/07/16 16:39:13;;;;;;;5.88;2.72;;;;;;;;;;7420247;19;20164;-80
2022/07/16 16:41:39;;;;;;;4.97;3.70;;;;;;;;;;7412497;19;20188;-80
2022/07/16 16:44:04;;;;;;;9.07;6.15;;;;;;;;;;7389799;19;20133;-80
2022/07/16 16:46:30;;;;;;;4.15;3.20;;;;;;;;;;7393995;19;20173;-80
2022/07/16 16:48:55;;;;;;;4.22;3.28;;;;;;;;;;7387781;19;20176;-80
2022/07/16 16:51:20;;;;;;;6.72;3.35;;;;;;;;;;7389951;19;20176;-80
2022/07/16 16:53:46;;;;;;;3.40;3.10;;;;;;;;;;7411492;19;20120;-79
2022/07/16 16:56:11;;;;;;;4.20;3.13;;;;;;;;;;7418444;19;20141;-79
2022/07/16 16:58:37;;;;;;;4.72;3.10;;;;;;;;;;7394618;19;20153;-80
2022/07/16 17:01:05;;;;;;;4.50;2.83;;;;;;;;;;7387439;19;20179;-80
2022/07/16 17:03:31;;;;;;;3.40;2.83;;;;;;;;;;7395165;19;20168;-80
2022/07/16 17:05:56;;;;;;;3.53;3.00;;;;;;;;;;7382434;19;20156;-80
2022/07/16 17:08:21;;;;;;;4.57;3.17;;;;;;;;;;7384322;19;20129;-80
2022/07/16 17:10:47;;;;;;;6.18;3.22;;;;;;;;;;7383974;19;20200;-79
2022/07/16 17:13:12;;;;;;;3.15;2.85;;;;;;;;;;7371280;19;20598;-79
2022/07/16 17:15:37;;;;;;;6.82;2.95;;;;;;;;;;7390624;19;20129;-80
2022/07/16 17:18:03;;;;;;;6.03;2.65;;;;;;;;;;7383740;19;20153;-80
2022/07/16 17:20:28;;;;;;;4.40;2.85;;;;;;;;;;7381176;19;20514;-79
2022/07/16 17:22:54;;;;;;;6.97;2.90;;;;;;;;;;7388778;19;20149;-80
2022/07/16 17:25:19;;;;;;;5.78;2.90;;;;;;;;;;7393424;19;20121;-79
2022/07/16 17:27:45;;;;;;;6.03;3.00;;;;;;;;;;7387483;19;20162;-79
2022/07/16 17:30:11;;;;;;;3.50;2.88;;;;;;;;;;7375646;19;20664;-79
2022/07/16 17:32:36;;;;;;;6.45;3.22;;;;;;;;;;7384559;19;20940;-79
2022/07/16 17:35:02;;;;;;;2.83;2.55;;;;;;;;;;7383316;19;20176;-80
2022/07/16 17:37:27;;;;;;;7.60;3.33;;;;;;;;;;7380644;19;20156;-80
2022/07/16 17:39:52;;;;;;;5.35;3.05;;;;;;;;;;7379436;19;20560;-80
2022/07/16 17:42:17;;;;;;;7.95;3.20;;;;;;;;;;7384818;19;20549;-81
2022/07/16 17:44:43;;;;;;;3.47;3.13;;;;;;;;;;7382040;19;20127;-81
2022/07/16 17:47:08;;;;;;;4.15;2.97;;;;;;;;;;7385892;19;20136;-81
2022/07/16 17:49:53;;;;;;;3.20;2.90;;;;;;;;;;7390415;19;20346;-81
2022/07/16 17:52:23;;;;;;;3.70;3.33;;;;;;;;;;7387114;19;20531;-81
2022/07/16 17:54:50;;;;;;;4.80;3.33;;;;;;;;;;7390064;19;20117;-81
2022/07/16 17:57:15;;;;;;;4.30;3.17;;;;;;;;;;7388792;19;20129;-81
2022/07/16 17:59:41;;;;;;;4.32;3.38;;;;;;;;;;7387738;19;20125;-81
2022/07/16 18:02:08;;;;;;;5.50;3.13;;;;;;;;;;7389569;19;20172;-80
2022/07/16 18:04:33;;;;;;;5.03;3.70;;;;;;;;;;7397141;19;20276;-81
2022/07/16 18:06:58;;;;;;;3.38;3.17;;;;;;;;;;7394665;19;20610;-80
2022/07/16 18:09:24;;;;;;;4.47;3.13;;;;;;;;;;7415697;19;20154;-79
2022/07/16 18:11:49;;;;;;;4.75;3.28;;;;;;;;;;7420208;19;20181;-79
2022/07/16 18:14:14;;;;;;;4.85;3.20;;;;;;;;;;7389093;19;20144;-79
2022/07/16 18:16:40;;;;;;;4.38;3.08;;;;;;;;;;7380437;19;20145;-80
2022/07/16 18:19:05;;;;;;;4.18;3.22;;;;;;;;;;7385153;19;20141;-79
2022/07/16 18:21:31;;;;;;;4.93;2.90;;;;;;;;;;7374489;19;20148;-80
2022/07/16 18:23:56;;;;;;;8.15;3.40;;;;;;;;;;7381137;19;20137;-79
2022/07/16 18:26:22;;;;;;;9.45;3.47;;;;;;;;;;7373042;19;20149;-79
2022/07/16 18:28:47;;;;;;;4.50;3.13;;;;;;;;;;7384150;19;20121;-79
2022/07/16 18:31:12;;;;;;;6.95;3.55;;;;;;;;;;7384803;19;20149;-80
2022/07/16 18:33:40;;;;;;;5.00;3.30;;;;;;;;;;7408856;19;20194;-80
2022/07/16 18:36:06;;;;;;;6.15;3.22;;;;;;;;;;7381723;19;20204;-80
2022/07/16 18:38:31;;;;;;;5.35;3.65;;;;;;;;;;7384804;19;20622;-80
2022/07/16 18:40:57;;;;;;;6.35;3.30;;;;;;;;;;7380057;19;20141;-80
2022/07/16 18:43:22;;;;;;;4.18;3.05;;;;;;;;;;7380298;19;20132;-79
2022/07/16 18:45:48;;;;;;;3.90;3.03;;;;;;;;;;7378820;19;20520;-78
2022/07/16 18:48:13;;;;;;;4.45;3.00;;;;;;;;;;7391243;19;20133;-78
2022/07/16 18:50:38;;;;;;;3.30;3.00;;;;;;;;;;7392593;19;20153;-77
2022/07/16 18:53:04;;;;;;;4.35;3.17;;;;;;;;;;7391379;19;20471;-78
2022/07/16 18:55:29;;;;;;;3.38;3.08;;;;;;;;;;7392488;19;20498;-78
2022/07/16 18:57:54;;;;;;;3.72;3.00;;;;;;;;;;7392756;19;20141;-78
2022/07/16 19:00:20;;;;;;;6.28;3.10;;;;;;;;;;7394622;19;20125;-78
2022/07/16 19:02:45;;;;;;;5.53;3.40;;;;;;;;;;7388240;19;20614;-78
2022/07/16 19:05:11;;;;;;;4.25;3.20;;;;;;;;;;7387992;19;20156;-78
2022/07/16 19:07:36;;;;;;;5.05;3.05;;;;;;;;;;7384858;19;20129;-77
2022/07/16 19:10:04;;;;;;;6.28;3.20;;;;;;;;;;7390847;19;20137;-77
2022/07/16 19:12:29;;;;;;;4.07;3.40;;;;;;;;;;7385890;19;20653;-77
2022/07/16 19:14:55;;;;;;;9.50;3.55;;;;;;;;;;7393063;19;20132;-77
2022/07/16 19:17:20;;;;;;;5.70;3.42;;;;;;;;;;7380212;19;20145;-77
2022/07/16 19:19:46;;;;;;;7.43;3.30;;;;;;;;;;7391520;19;20153;-78
2022/07/16 19:22:11;;;;;;;4.78;3.75;;;;;;;;;;7382542;19;20753;-77
2022/07/16 19:24:36;;;;;;;4.10;3.33;;;;;;;;;;7386529;19;20152;-77
2022/07/16 19:27:02;;;;;;;6.45;3.15;;;;;;;;;;7391758;19;20161;-77
2022/07/16 19:29:27;;;;;;;4.97;3.65;;;;;;;;;;7389987;19;20157;-77
2022/07/16 19:31:53;;;;;;;5.32;3.30;;;;;;;;;;7390532;19;20608;-76
2022/07/16 19:34:18;;;;;;;4.97;3.53;;;;;;;;;;7387023;19;20117;-76
2022/07/16 19:36:43;;;;;;;4.72;3.00;;;;;;;;;;7391788;19;20125;-76
2022/07/16 19:39:09;;;;;;;6.00;3.53;;;;;;;;;;7390429;19;20167;-76
2022/07/16 19:41:36;;;;;;;3.50;2.85;;;;;;;;;;7386667;19;20626;-76
